createdAt,value
2018-12-17T00:00:53.753Z,92.19
2018-12-17T00:03:19.916Z,92.05
2018-12-17T00:05:46.071Z,92.45
2018-12-17T00:08:12.228Z,91.79
2018-12-17T00:10:38.408Z,92.25
2018-12-17T00:13:04.544Z,92.60
2018-12-17T00:15:30.664Z,92.68
2018-12-17T00:17:56.813Z,92.03
2018-12-17T00:20:22.953Z,92.25
2018-12-17T00:22:49.069Z,92.90
2018-12-17T00:25:15.347Z,92.70
2018-12-17T00:27:41.528Z,92.52
2018-12-17T00:30:08.031Z,92.75
2018-12-17T00:32:34.173Z,92.83
2018-12-17T00:35:00.354Z,92.64
2018-12-17T00:37:26.480Z,92.23
2018-12-17T00:39:52.610Z,92.54
2018-12-17T00:42:18.727Z,93.05
2018-12-17T00:44:44.867Z,92.83
2018-12-17T00:47:11.042Z,93.27
2018-12-17T00:49:37.176Z,93.38
2018-12-17T00:52:03.299Z,93.32
2018-12-17T00:54:29.452Z,93.34
2018-12-17T00:56:55.603Z,93.26
2018-12-17T00:59:21.739Z,93.68
2018-12-17T01:01:47.924Z,93.82
2018-12-17T01:04:14.063Z,93.18
2018-12-17T01:06:40.230Z,93.27
2018-12-17T01:09:06.394Z,93.51
2018-12-17T01:11:32.578Z,93.67
2018-12-17T01:13:58.802Z,93.51
2018-12-17T01:16:26.520Z,93.88
2018-12-17T01:18:52.890Z,93.94
2018-12-17T01:21:19.709Z,93.67
2018-12-17T01:23:46.084Z,93.97
2018-12-17T01:26:12.483Z,93.71
2018-12-17T01:28:38.963Z,94.16
2018-12-17T01:31:05.129Z,93.83
2018-12-17T01:33:31.287Z,94.25
2018-12-17T01:35:57.423Z,94.30
2018-12-17T01:38:23.550Z,93.92
2018-12-17T01:40:49.688Z,93.85
2018-12-17T01:43:15.835Z,93.88
2018-12-17T01:45:41.959Z,94.39
2018-12-17T01:48:08.071Z,94.49
2018-12-17T01:50:34.212Z,94.12
2018-12-17T01:53:00.339Z,94.40
2018-12-17T01:55:26.503Z,94.53
2018-12-17T01:57:52.639Z,94.60
2018-12-17T02:00:18.791Z,94.53
2018-12-17T02:02:44.908Z,94.33
2018-12-17T02:05:11.091Z,94.48
2018-12-17T02:07:37.219Z,94.80
2018-12-17T02:10:03.594Z,94.93
2018-12-17T02:12:29.753Z,94.67
2018-12-17T02:14:55.884Z,94.95
2018-12-17T02:17:22.031Z,95.36
2018-12-17T02:19:48.157Z,94.75
2018-12-17T02:22:14.287Z,94.77
2018-12-17T02:24:40.439Z,94.96
2018-12-17T02:27:06.583Z,95.08
2018-12-17T02:29:32.739Z,95.33
2018-12-17T02:31:58.898Z,95.03
2018-12-17T02:34:25.864Z,95.21
2018-12-17T02:36:52.004Z,95.08
2018-12-17T02:39:18.143Z,95.02
2018-12-17T02:41:44.661Z,95.19
2018-12-17T02:44:10.823Z,95.26
2018-12-17T02:46:36.988Z,95.22
2018-12-17T02:49:03.185Z,95.04
2018-12-17T02:51:29.318Z,94.61
2018-12-17T02:53:55.468Z,94.71
2018-12-17T02:56:21.609Z,95.10
2018-12-17T02:58:47.788Z,94.92
2018-12-17T03:01:13.912Z,95.20
2018-12-17T03:03:40.039Z,95.11
2018-12-17T03:06:06.230Z,95.14
2018-12-17T03:08:32.435Z,94.85
2018-12-17T03:10:58.580Z,94.85
2018-12-17T03:13:24.726Z,95.10
2018-12-17T03:15:50.894Z,94.86
2018-12-17T03:18:17.023Z,95.33
2018-12-17T03:20:43.169Z,94.75
2018-12-17T03:23:09.340Z,94.87
2018-12-17T03:25:35.481Z,95.02
2018-12-17T03:28:01.702Z,94.48
2018-12-17T03:30:27.965Z,94.94
2018-12-17T03:32:54.110Z,94.45
2018-12-17T03:35:20.264Z,94.85
2018-12-17T03:37:46.396Z,94.87
2018-12-17T03:40:12.540Z,94.79
2018-12-17T03:42:38.663Z,94.91
2018-12-17T03:45:05.455Z,94.43
2018-12-17T03:47:31.578Z,94.51
2018-12-17T03:49:57.729Z,94.59
2018-12-17T03:52:23.877Z,94.69
2018-12-17T03:54:50.072Z,94.35
2018-12-17T03:57:16.186Z,94.77
2018-12-17T03:59:42.392Z,94.57
2018-12-17T04:02:08.511Z,94.69
2018-12-17T04:04:34.639Z,95.01
2018-12-17T04:07:00.775Z,94.34
2018-12-17T04:09:26.977Z,94.58
2018-12-17T04:11:53.095Z,94.85
2018-12-17T04:14:19.241Z,94.85
2018-12-17T04:16:45.402Z,94.73
2018-12-17T04:19:11.530Z,94.54
2018-12-17T04:21:37.669Z,94.74
2018-12-17T04:24:03.826Z,94.46
2018-12-17T04:26:29.956Z,94.35
2018-12-17T04:28:56.113Z,94.38
2018-12-17T04:31:22.238Z,94.29
2018-12-17T04:33:48.401Z,94.39
2018-12-17T04:36:14.553Z,94.83
2018-12-17T04:38:40.676Z,94.82
2018-12-17T04:41:06.813Z,95.06
2018-12-17T04:43:32.933Z,94.57
2018-12-17T04:45:59.057Z,94.77
2018-12-17T04:48:25.188Z,95.12
2018-12-17T04:50:51.365Z,95.04
2018-12-17T04:53:17.476Z,94.81
2018-12-17T04:55:43.616Z,94.83
2018-12-17T04:58:09.895Z,94.98
2018-12-17T05:00:36.022Z,94.55
2018-12-17T05:03:02.218Z,95.05
2018-12-17T05:05:28.417Z,94.77
2018-12-17T05:07:54.550Z,94.81
2018-12-17T05:10:20.690Z,94.92
2018-12-17T05:12:46.810Z,95.17
2018-12-17T05:15:12.973Z,94.82
2018-12-17T05:17:39.117Z,95.25
2018-12-17T05:20:05.456Z,95.25
2018-12-17T05:22:31.571Z,95.46
2018-12-17T05:24:57.719Z,95.51
2018-12-17T05:27:23.835Z,95.40
2018-12-17T05:29:49.965Z,95.24
2018-12-17T05:32:16.095Z,95.50
2018-12-17T05:34:42.244Z,95.60
2018-12-17T05:37:08.399Z,95.29
2018-12-17T05:39:34.523Z,95.45
2018-12-17T05:42:00.640Z,95.54
2018-12-17T05:44:26.772Z,95.49
2018-12-17T05:46:52.910Z,95.67
2018-12-17T05:49:19.041Z,95.28
2018-12-17T05:51:45.180Z,95.46
2018-12-17T05:54:11.294Z,95.82
2018-12-17T05:56:37.468Z,95.86
2018-12-17T05:59:03.595Z,95.71
2018-12-17T06:01:29.737Z,95.77
2018-12-17T06:03:55.855Z,95.40
2018-12-17T06:06:21.991Z,95.99
2018-12-17T06:08:48.114Z,95.56
2018-12-17T06:11:14.257Z,95.62
2018-12-17T06:13:40.444Z,95.89
2018-12-17T06:16:06.585Z,95.49
2018-12-17T06:18:32.725Z,95.54
2018-12-17T06:20:58.995Z,95.91
2018-12-17T06:23:25.124Z,95.75
2018-12-17T06:25:51.230Z,95.88
2018-12-17T06:28:17.378Z,96.06
2018-12-17T06:30:43.490Z,95.48
2018-12-17T06:33:15.513Z,95.56
2018-12-17T06:35:37.759Z,95.88
2018-12-17T06:38:03.931Z,95.62
2018-12-17T06:40:30.066Z,95.58
2018-12-17T06:42:56.236Z,96.01
2018-12-17T06:45:22.378Z,95.89
2018-12-17T06:47:48.525Z,95.82
2018-12-17T06:50:14.643Z,95.82
2018-12-17T06:52:40.816Z,95.59
2018-12-17T06:55:06.960Z,95.70
2018-12-17T06:57:33.088Z,95.82
2018-12-17T06:59:59.199Z,95.88
2018-12-17T07:02:25.457Z,95.87
2018-12-17T07:04:51.585Z,95.91
2018-12-17T07:07:17.768Z,95.88
2018-12-17T07:09:43.897Z,95.71
2018-12-17T07:12:10.063Z,95.80
2018-12-17T07:14:36.591Z,95.52
2018-12-17T07:17:03.171Z,95.31
2018-12-17T07:19:29.324Z,95.78
2018-12-17T07:21:55.465Z,95.62
2018-12-17T07:24:21.634Z,95.78
2018-12-17T07:26:47.779Z,95.76
2018-12-17T07:29:13.918Z,95.74
2018-12-17T07:31:40.083Z,95.54
2018-12-17T07:34:06.234Z,95.86
2018-12-17T07:36:32.359Z,95.78
2018-12-17T07:38:58.495Z,95.49
2018-12-17T07:41:24.606Z,95.88
2018-12-17T07:43:50.875Z,95.97
2018-12-17T07:46:17.012Z,95.83
2018-12-17T07:48:43.148Z,95.41
2018-12-17T07:51:09.296Z,95.76
2018-12-17T07:53:35.425Z,95.39
2018-12-17T07:56:01.574Z,95.81
2018-12-17T07:58:27.720Z,95.45
2018-12-17T08:00:53.851Z,95.47
2018-12-17T08:03:19.989Z,95.86
2018-12-17T08:05:46.114Z,95.71
2018-12-17T08:08:12.256Z,95.58
2018-12-17T08:10:38.379Z,95.51
2018-12-17T08:13:05.071Z,95.28
2018-12-17T08:15:32.063Z,95.70
2018-12-17T08:18:21.375Z,95.61
2018-12-17T08:20:49.458Z,95.16
2018-12-17T08:23:16.044Z,95.31
2018-12-17T08:25:42.175Z,95.44
2018-12-17T08:28:08.307Z,95.80
2018-12-17T08:30:34.464Z,95.56
2018-12-17T08:33:00.581Z,95.54
2018-12-17T08:35:26.720Z,95.90
2018-12-17T08:37:52.863Z,95.60
2018-12-17T08:40:19.139Z,95.77
2018-12-17T08:42:45.279Z,95.68
2018-12-17T08:45:11.451Z,95.60
2018-12-17T08:47:37.583Z,95.39
2018-12-17T08:50:04.189Z,95.50
2018-12-17T08:52:30.320Z,95.94
2018-12-17T08:54:56.695Z,95.68
2018-12-17T08:57:22.816Z,95.76
2018-12-17T08:59:48.976Z,95.74
2018-12-17T09:02:15.118Z,96.06
2018-12-17T09:04:41.269Z,96.15
2018-12-17T09:07:07.431Z,96.07
2018-12-17T09:09:33.564Z,96.29
2018-12-17T09:11:59.709Z,96.16
2018-12-17T09:14:25.840Z,96.25
2018-12-17T09:16:51.982Z,96.01
2018-12-17T09:19:18.111Z,95.93
2018-12-17T09:21:44.263Z,96.15
2018-12-17T09:24:10.409Z,95.91
2018-12-17T09:26:36.565Z,95.92
2018-12-17T09:29:02.928Z,96.19
2018-12-17T09:31:29.084Z,96.07
2018-12-17T09:33:55.222Z,95.85
2018-12-17T09:36:21.539Z,96.05
2018-12-17T09:38:47.679Z,96.17
2018-12-17T09:41:13.804Z,96.26
2018-12-17T09:43:39.929Z,96.03
2018-12-17T09:46:06.200Z,95.81
2018-12-17T09:48:32.321Z,95.87
2018-12-17T09:50:58.499Z,95.79
2018-12-17T09:53:24.636Z,95.78
2018-12-17T09:55:50.760Z,95.68
2018-12-17T09:58:16.888Z,95.78
2018-12-17T10:00:43.021Z,95.87
2018-12-17T10:03:09.219Z,95.89
2018-12-17T10:05:35.346Z,96.36
2018-12-17T10:08:01.483Z,95.98
2018-12-17T10:10:27.648Z,95.60
2018-12-17T10:12:53.794Z,95.75
2018-12-17T10:15:19.920Z,95.81
2018-12-17T10:17:46.064Z,95.53
2018-12-17T10:20:12.196Z,95.65
2018-12-17T10:22:38.331Z,95.84
2018-12-17T10:25:04.579Z,95.63
2018-12-17T10:27:30.695Z,95.97
2018-12-17T10:29:56.824Z,95.51
2018-12-17T10:32:22.962Z,95.59
2018-12-17T10:34:49.120Z,95.72
2018-12-17T10:37:15.261Z,95.70
2018-12-17T10:39:41.403Z,95.58
2018-12-17T10:42:07.629Z,95.27
2018-12-17T10:44:33.764Z,95.63
2018-12-17T10:46:59.901Z,95.19
2018-12-17T10:49:26.028Z,95.64
2018-12-17T10:51:52.162Z,95.82
2018-12-17T10:54:18.308Z,95.52
2018-12-17T10:56:44.436Z,95.49
2018-12-17T10:59:10.575Z,95.65
2018-12-17T11:01:42.800Z,95.61
2018-12-17T11:04:10.379Z,95.83
2018-12-17T11:06:36.707Z,95.99
2018-12-17T11:09:05.504Z,96.12
2018-12-17T11:11:31.709Z,96.25
2018-12-17T11:13:57.918Z,95.82
2018-12-17T11:16:24.091Z,95.91
2018-12-17T11:18:50.235Z,95.69
2018-12-17T11:21:16.482Z,95.86
2018-12-17T11:23:42.626Z,95.84
2018-12-17T11:26:08.767Z,96.05
2018-12-17T11:28:34.922Z,96.57
2018-12-17T11:31:01.039Z,96.47
2018-12-17T11:33:27.194Z,96.12
2018-12-17T11:35:53.331Z,96.23
2018-12-17T11:38:19.450Z,96.22
2018-12-17T11:40:45.619Z,96.79
2018-12-17T11:43:11.735Z,96.40
2018-12-17T11:45:38.003Z,96.37
2018-12-17T11:48:04.190Z,96.87
2018-12-17T11:50:30.321Z,96.71
2018-12-17T11:52:56.466Z,97.21
2018-12-17T11:55:22.607Z,97.06
2018-12-17T11:57:55.520Z,96.86
2018-12-17T12:00:23.743Z,97.09
2018-12-17T12:02:49.875Z,97.04
2018-12-17T12:05:16.004Z,96.98
2018-12-17T12:07:42.135Z,96.99
2018-12-17T12:10:08.259Z,96.78
2018-12-17T12:12:34.372Z,97.07
2018-12-17T12:15:00.503Z,97.04
2018-12-17T12:17:26.625Z,97.19
2018-12-17T12:19:52.772Z,97.04
2018-12-17T12:22:18.920Z,97.16
2018-12-17T12:24:45.020Z,97.30
2018-12-17T12:27:11.194Z,97.73
2018-12-17T12:29:37.314Z,97.62
2018-12-17T12:32:03.486Z,97.28
2018-12-17T12:34:29.634Z,97.28
2018-12-17T12:36:55.755Z,97.22
2018-12-17T12:39:22.098Z,97.62
2018-12-17T12:41:48.256Z,97.45
2018-12-17T12:44:14.391Z,97.38
2018-12-17T12:46:40.507Z,97.84
2018-12-17T12:49:06.634Z,97.88
2018-12-17T12:51:33.056Z,97.63
2018-12-17T12:53:59.239Z,97.50
2018-12-17T12:56:25.409Z,97.31
2018-12-17T12:58:51.667Z,97.29
2018-12-17T13:01:17.803Z,97.77
2018-12-17T13:03:43.923Z,97.45
2018-12-17T13:06:10.070Z,97.77
2018-12-17T13:08:36.200Z,97.76
2018-12-17T13:11:02.371Z,97.35
2018-12-17T13:13:28.522Z,97.57
2018-12-17T13:15:54.647Z,97.13
2018-12-17T13:18:20.804Z,97.80
2018-12-17T13:20:46.932Z,97.71
2018-12-17T13:23:13.057Z,97.83
2018-12-17T13:25:39.727Z,97.54
2018-12-17T13:28:05.918Z,97.81
2018-12-17T13:30:32.182Z,97.36
2018-12-17T13:32:58.303Z,97.39
2018-12-17T13:35:24.431Z,97.39
2018-12-17T13:37:50.555Z,97.34
2018-12-17T13:40:16.767Z,97.44
2018-12-17T13:42:42.905Z,97.32
2018-12-17T13:45:09.211Z,97.31
2018-12-17T13:47:35.338Z,97.73
2018-12-17T13:50:03.647Z,97.49
2018-12-17T13:52:35.795Z,97.67
2018-12-17T13:55:01.972Z,97.33
2018-12-17T13:57:28.086Z,97.37
2018-12-17T13:59:54.224Z,97.71
2018-12-17T14:02:20.362Z,97.56
2018-12-17T14:04:46.487Z,97.36
2018-12-17T14:07:12.617Z,97.66
2018-12-17T14:09:40.815Z,97.75
2018-12-17T14:12:06.959Z,97.28
2018-12-17T14:14:33.070Z,97.21
2018-12-17T14:17:05.426Z,97.24
2018-12-17T14:19:32.614Z,97.22
2018-12-17T14:21:58.779Z,97.35
2018-12-17T14:24:24.924Z,97.26
2018-12-17T14:26:51.062Z,97.24
2018-12-17T14:29:17.176Z,97.39
2018-12-17T14:31:43.315Z,97.41
2018-12-17T14:34:09.448Z,97.51
2018-12-17T14:36:35.572Z,97.89
2018-12-17T14:39:03.082Z,97.44
2018-12-17T14:41:29.223Z,97.61
2018-12-17T14:43:57.399Z,97.76
2018-12-17T14:46:23.511Z,97.50
2018-12-17T14:48:49.639Z,97.49
2018-12-17T14:51:15.762Z,97.38
2018-12-17T14:53:41.906Z,97.33
2018-12-17T14:56:08.044Z,97.79
2018-12-17T14:58:34.199Z,97.47
2018-12-17T15:01:00.357Z,97.67
2018-12-17T15:03:26.472Z,97.52
2018-12-17T15:05:52.611Z,97.41
2018-12-17T15:08:18.719Z,97.96
2018-12-17T15:10:44.887Z,97.51
2018-12-17T15:13:11.052Z,97.88
2018-12-17T15:15:37.212Z,97.67
2018-12-17T15:18:03.390Z,97.83
2018-12-17T15:20:29.591Z,97.86
2018-12-17T15:22:55.721Z,97.74
2018-12-17T15:25:21.877Z,97.76
2018-12-17T15:27:48.053Z,97.46
2018-12-17T15:30:14.384Z,97.74
2018-12-17T15:32:40.580Z,97.92
2018-12-17T15:35:06.724Z,97.74
2018-12-17T15:37:32.845Z,98.00
2018-12-17T15:39:59.128Z,97.97
2018-12-17T15:42:25.269Z,97.65
2018-12-17T15:44:51.394Z,97.59
2018-12-17T15:47:17.535Z,97.78
2018-12-17T15:49:43.659Z,97.58
2018-12-17T15:52:09.795Z,97.53
2018-12-17T15:54:35.906Z,97.84
2018-12-17T15:57:02.040Z,97.74
2018-12-17T15:59:28.305Z,97.73
2018-12-17T16:01:54.475Z,97.88
2018-12-17T16:04:20.593Z,97.72
2018-12-17T16:06:46.733Z,97.63
2018-12-17T16:09:12.863Z,97.31
2018-12-17T16:11:39.000Z,97.24
2018-12-17T16:14:05.116Z,97.46
2018-12-17T16:16:31.242Z,97.34
2018-12-17T16:18:57.407Z,97.59
2018-12-17T16:21:23.526Z,97.68
2018-12-17T16:23:49.655Z,97.53
2018-12-17T16:26:15.776Z,97.67
2018-12-17T16:28:41.904Z,97.19
2018-12-17T16:31:08.027Z,97.38
2018-12-17T16:33:34.203Z,97.51
2018-12-17T16:36:00.599Z,97.41
2018-12-17T16:38:26.747Z,97.08
2018-12-17T16:40:52.889Z,96.92
2018-12-17T16:43:19.079Z,97.26
2018-12-17T16:45:45.469Z,97.04
2018-12-17T16:48:11.601Z,97.31
2018-12-17T16:50:37.753Z,97.39
2018-12-17T16:53:03.909Z,97.62
2018-12-17T16:55:30.039Z,97.31
2018-12-17T16:57:56.207Z,97.30
2018-12-17T17:00:22.326Z,97.03
2018-12-17T17:02:48.539Z,97.42
2018-12-17T17:05:14.648Z,97.42
2018-12-17T17:07:40.758Z,97.03
2018-12-17T17:10:08.250Z,97.31
2018-12-17T17:12:34.399Z,97.37
2018-12-17T17:15:00.573Z,97.53
2018-12-17T17:17:26.707Z,97.44
2018-12-17T17:19:52.839Z,97.48
2018-12-17T17:22:18.978Z,97.44
2018-12-17T17:24:45.117Z,97.38
2018-12-17T17:27:11.394Z,97.63
2018-12-17T17:29:37.536Z,97.55
2018-12-17T17:32:03.684Z,97.45
2018-12-17T17:34:29.823Z,97.37
2018-12-17T17:36:55.959Z,97.40
2018-12-17T17:39:22.177Z,97.55
2018-12-17T17:41:48.391Z,97.73
2018-12-17T17:44:14.540Z,97.43
2018-12-17T17:46:40.672Z,97.59
2018-12-17T17:49:06.838Z,97.92
2018-12-17T17:51:33.003Z,98.16
2018-12-17T17:53:59.157Z,98.32
2018-12-17T17:56:25.275Z,98.46
2018-12-17T17:58:51.411Z,98.08
2018-12-17T18:01:17.551Z,98.51
2018-12-17T18:03:43.684Z,97.87
2018-12-17T18:06:16.044Z,98.30
2018-12-17T18:08:37.978Z,98.15
2018-12-17T18:11:04.122Z,98.25
2018-12-17T18:13:30.264Z,98.00
2018-12-17T18:15:56.388Z,98.24
2018-12-17T18:18:22.508Z,98.40
2018-12-17T18:20:48.668Z,98.41
2018-12-17T18:23:14.779Z,98.52
2018-12-17T18:25:40.931Z,98.08
2018-12-17T18:28:07.071Z,98.35
2018-12-17T18:30:33.217Z,98.21
2018-12-17T18:32:59.339Z,98.28
2018-12-17T18:35:25.494Z,98.49
2018-12-17T18:37:51.622Z,98.25
2018-12-17T18:40:17.749Z,98.48
2018-12-17T18:42:43.880Z,98.46
2018-12-17T18:45:10.295Z,98.52
2018-12-17T18:47:36.427Z,98.64
2018-12-17T18:50:03.191Z,98.56
2018-12-17T18:52:29.327Z,98.56
2018-12-17T18:54:55.432Z,98.72
2018-12-17T18:57:21.563Z,98.61
2018-12-17T18:59:47.710Z,98.84
2018-12-17T19:02:13.859Z,98.46
2018-12-17T19:04:40.008Z,98.40
2018-12-17T19:07:06.141Z,98.63
2018-12-17T19:09:32.278Z,98.67
2018-12-17T19:11:58.399Z,98.69
2018-12-17T19:14:24.530Z,98.74
2018-12-17T19:16:50.663Z,98.48
2018-12-17T19:19:16.806Z,98.92
2018-12-17T19:21:42.939Z,98.59
2018-12-17T19:24:09.052Z,98.52
2018-12-17T19:26:35.166Z,98.94
2018-12-17T19:29:01.307Z,98.56
2018-12-17T19:31:34.380Z,98.91
2018-12-17T19:33:55.660Z,98.65
2018-12-17T19:36:21.783Z,98.87
2018-12-17T19:38:47.930Z,98.38
2018-12-17T19:41:14.084Z,98.76
2018-12-17T19:43:40.228Z,98.70
2018-12-17T19:46:06.416Z,98.50
2018-12-17T19:48:32.527Z,98.75
2018-12-17T19:50:58.674Z,98.43
2018-12-17T19:53:24.811Z,98.25
2018-12-17T19:55:50.939Z,98.38
2018-12-17T19:58:17.087Z,98.63
2018-12-17T20:00:43.206Z,98.50
2018-12-17T20:03:09.357Z,98.14
2018-12-17T20:05:35.502Z,98.66
2018-12-17T20:08:01.620Z,98.25
2018-12-17T20:10:27.767Z,98.33
2018-12-17T20:12:53.903Z,98.21
2018-12-17T20:15:20.047Z,98.43
2018-12-17T20:17:46.180Z,98.53
2018-12-17T20:20:12.323Z,98.62
2018-12-17T20:22:38.442Z,98.53
2018-12-17T20:25:04.602Z,98.35
2018-12-17T20:27:30.742Z,98.54
2018-12-17T20:29:56.899Z,98.51
2018-12-17T20:32:23.018Z,98.44
2018-12-17T20:34:49.151Z,98.35
2018-12-17T20:37:15.267Z,98.50
2018-12-17T20:39:42.193Z,98.52
2018-12-17T20:42:08.323Z,98.31
2018-12-17T20:44:34.610Z,98.60
2018-12-17T20:47:00.715Z,98.33
2018-12-17T20:49:26.823Z,98.61
2018-12-17T20:51:52.951Z,98.32
2018-12-17T20:54:19.103Z,98.38
2018-12-17T20:56:45.239Z,98.53
2018-12-17T20:59:11.361Z,98.26
2018-12-17T21:01:37.544Z,98.24
2018-12-17T21:04:03.691Z,98.50
2018-12-17T21:06:29.813Z,98.24
2018-12-17T21:08:55.967Z,98.37
2018-12-17T21:11:22.119Z,98.23
2018-12-17T21:13:48.233Z,98.54
2018-12-17T21:16:14.361Z,98.38
2018-12-17T21:18:41.403Z,98.54
2018-12-17T21:21:07.545Z,98.43
2018-12-17T21:23:33.803Z,98.20
2018-12-17T21:25:59.954Z,98.62
2018-12-17T21:28:26.068Z,98.38
2018-12-17T21:30:52.191Z,98.25
2018-12-17T21:33:18.308Z,98.63
2018-12-17T21:35:45.186Z,98.35
2018-12-17T21:38:11.311Z,98.56
2018-12-17T21:40:37.443Z,98.47
2018-12-17T21:43:03.611Z,98.22
2018-12-17T21:45:29.733Z,98.62
2018-12-17T21:47:55.911Z,98.58
2018-12-17T21:50:22.031Z,98.46
2018-12-17T21:52:48.156Z,98.32
2018-12-17T21:55:14.287Z,98.44
2018-12-17T21:57:40.428Z,98.46
2018-12-17T22:00:07.103Z,98.35
2018-12-17T22:02:33.248Z,98.63
2018-12-17T22:04:59.369Z,98.72
2018-12-17T22:07:25.519Z,98.79
2018-12-17T22:09:51.671Z,99.08
2018-12-17T22:12:17.823Z,98.85
2018-12-17T22:14:43.959Z,98.78
2018-12-17T22:17:10.083Z,98.44
2018-12-17T22:19:36.215Z,98.82
2018-12-17T22:22:02.473Z,98.42
2018-12-17T22:24:28.575Z,98.96
2018-12-17T22:26:54.747Z,98.84
2018-12-17T22:29:20.888Z,98.62
2018-12-17T22:31:47.015Z,98.96
2018-12-17T22:34:13.135Z,99.00
2018-12-17T22:36:39.255Z,99.04
2018-12-17T22:39:05.524Z,98.92
2018-12-17T22:41:32.477Z,98.71
2018-12-17T22:43:58.655Z,98.76
2018-12-17T22:46:24.774Z,98.74
2018-12-17T22:48:50.907Z,98.73
2018-12-17T22:51:17.049Z,99.01
2018-12-17T22:53:43.175Z,98.99
2018-12-17T22:56:09.283Z,98.67
2018-12-17T22:58:35.412Z,98.63
2018-12-17T23:01:01.786Z,98.68
2018-12-17T23:03:27.947Z,98.65
2018-12-17T23:05:54.183Z,98.76
2018-12-17T23:08:20.370Z,98.83
2018-12-17T23:10:58.769Z,98.87
2018-12-17T23:13:37.214Z,98.82
2018-12-17T23:16:15.681Z,98.93
2018-12-17T23:18:41.562Z,98.71
2018-12-17T23:21:07.927Z,98.70
2018-12-17T23:23:34.079Z,98.71
2018-12-17T23:26:00.193Z,99.04
2018-12-17T23:28:26.471Z,98.65
2018-12-17T23:30:52.615Z,98.63
2018-12-17T23:33:18.746Z,98.67
2018-12-17T23:35:44.890Z,99.03
2018-12-17T23:38:10.995Z,98.56
2018-12-17T23:40:37.159Z,98.81
2018-12-17T23:43:03.290Z,98.60
2018-12-17T23:45:29.431Z,98.63
2018-12-17T23:47:55.546Z,98.68
2018-12-17T23:50:21.695Z,98.59
2018-12-17T23:52:47.800Z,98.49
2018-12-17T23:55:13.951Z,98.42
2018-12-17T23:57:40.111Z,98.53
